Time;durP1;ratioP1;P1;durP2;ratioP2;P2;SDS_P1;SDS_P2;PMS_P1;PMS_P2;Temp;Humidity;BMP_temperature;BMP_pressure;BME280_temperature;BME280_humidity;BME280_pressure;Samples;Min_cycle;Max_cycle;Signal;HPM_P1;HPM_P2
2021/10/31 00:01:58;;;;;;;7.93;3.58;;;;;;;15.98;49.55;98942.84;4418818;32;20341;-69
2021/10/31 00:04:24;;;;;;;11.85;3.37;;;;;;;16.19;48.89;98927.81;4420863;32;20061;-69
2021/10/31 00:06:50;;;;;;;8.15;3.45;;;;;;;15.85;49.85;98935.63;4420222;32;20062;-69
2021/10/31 00:09:16;;;;;;;12.70;4.55;;;;;;;15.99;49.73;98933.81;4418277;32;20453;-69
2021/10/31 00:11:42;;;;;;;13.82;4.03;;;;;;;15.92;50.42;98932.25;4422913;32;20140;-69
2021/10/31 00:14:08;;;;;;;10.25;3.97;;;;;;;16.20;49.75;98939.94;4418474;32;20034;-69
2021/10/31 00:16:34;;;;;;;9.82;3.47;;;;;;;16.34;49.27;98942.47;4421303;32;20033;-69
2021/10/31 00:18:59;;;;;;;12.73;4.00;;;;;;;15.94;50.53;98948.75;4420875;32;20100;-69
2021/10/31 00:21:26;;;;;;;10.93;3.47;;;;;;;16.24;49.80;98946.09;4418712;32;20317;-69
2021/10/31 00:23:53;;;;;;;12.15;4.03;;;;;;;15.81;50.99;98935.09;4406018;32;20449;-69
2021/10/31 00:26:19;;;;;;;9.05;3.78;;;;;;;16.17;50.60;98946.66;4406642;32;20069;-69
2021/10/31 00:28:45;;;;;;;11.05;4.45;;;;;;;15.85;51.39;98943.34;4421899;32;20068;-69
2021/10/31 00:31:11;;;;;;;14.27;4.18;;;;;;;16.11;50.62;98938.16;4420141;32;20053;-69
2021/10/31 00:33:38;;;;;;;14.15;4.53;;;;;;;16.01;50.84;98942.53;4419794;32;20054;-69
2021/10/31 00:36:04;;;;;;;8.63;3.67;;;;;;;16.08;50.94;98930.69;4417229;32;20033;-69
2021/10/31 00:38:31;;;;;;;12.02;3.95;;;;;;;16.42;49.82;98929.28;4419468;32;20061;-69
2021/10/31 00:40:57;;;;;;;7.93;4.32;;;;;;;16.37;49.70;98930.06;4420388;32;20058;-69
2021/10/31 00:43:22;;;;;;;8.63;4.18;;;;;;;16.50;49.36;98935.22;4420260;32;20087;-69
2021/10/31 00:45:49;;;;;;;12.10;4.47;;;;;;;16.56;49.15;98928.22;4419891;32;20372;-69
2021/10/31 00:48:16;;;;;;;15.68;5.25;;;;;;;16.62;48.72;98926.13;4423030;32;20038;-69
2021/10/31 00:50:42;;;;;;;9.35;4.55;;;;;;;16.74;48.72;98918.31;4404223;32;20033;-69
2021/10/31 00:53:08;;;;;;;10.43;4.45;;;;;;;16.65;48.66;98916.56;4418865;32;20041;-69
2021/10/31 00:55:35;;;;;;;10.93;4.47;;;;;;;16.55;48.64;98908.88;4420193;32;20042;-69
2021/10/31 00:58:01;;;;;;;17.85;5.12;;;;;;;16.39;49.03;98915.34;4420053;32;20423;-69
2021/10/31 01:00:27;;;;;;;14.25;5.50;;;;;;;16.32;48.89;98907.41;4420436;32;20088;-69
2021/10/31 01:02:53;;;;;;;11.30;5.70;;;;;;;16.29;49.10;98906.34;4425965;32;20029;-69
2021/10/31 01:05:26;;;;;;;17.25;6.00;;;;;;;16.16;49.22;98911.03;4422470;32;20103;-69
2021/10/31 01:16:07;;;;;;;12.23;5.62;;;;;;;16.74;48.41;98907.72;3982788;32;15022367;-70
2021/10/31 01:27:39;;;;;;;15.32;6.97;;;;;;;16.69;48.20;98882.97;3983307;32;15022398;-69
2021/10/31 01:33:01;;;;;;;14.57;7.05;;;;;;;16.91;47.93;98876.38;3999465;31;15016104;-69
2021/10/31 01:43:34;;;;;;;17.02;8.43;;;;;;;16.96;47.85;98861.34;3981944;32;15028097;-69
2021/10/31 01:46:31;;;;;;;14.98;7.37;;;;;;;16.96;47.85;98861.34;4432847;32;20544;-69
2021/10/31 01:51:54;;;;;;;15.60;8.10;;;;;;;16.92;47.78;98841.78;3986030;32;15023153;-69
2021/10/31 01:54:28;;;;;;;14.38;7.05;;;;;;;16.92;47.78;98841.78;4436800;32;20046;-69
2021/10/31 01:57:00;;;;;;;14.93;7.45;;;;;;;16.69;47.75;98825.41;4437627;32;20052;-69
2021/10/31 01:59:31;;;;;;;14.80;7.70;;;;;;;16.50;48.00;98830.94;4438290;32;20523;-69
2021/10/31 02:01:59;;;;;;;13.55;7.85;;;;;;;16.41;48.41;98831.19;4435978;32;20030;-69
2021/10/31 02:04:26;;;;;;;19.83;8.75;;;;;;;16.38;48.38;98814.47;4439249;32;20033;-69
2021/10/31 02:06:53;;;;;;;15.52;7.80;;;;;;;16.35;48.54;98810.59;4437580;32;20081;-69
2021/10/31 02:09:22;;;;;;;19.37;8.15;;;;;;;16.28;48.77;98813.22;4441747;32;20407;-69
2021/10/31 02:11:50;;;;;;;20.17;8.52;;;;;;;16.33;48.39;98807.53;4438325;32;20120;-70
2021/10/31 02:14:17;;;;;;;19.40;7.80;;;;;;;16.24;48.73;98809.88;4438883;32;20025;-69
2021/10/31 02:16:44;;;;;;;14.18;7.65;;;;;;;16.11;48.61;98799.13;4438057;32;20094;-69
2021/10/31 02:19:19;;;;;;;18.65;7.47;;;;;;;16.27;48.55;98798.25;4438727;32;20025;-69
2021/10/31 02:21:47;;;;;;;20.50;7.45;;;;;;;16.35;48.18;98781.47;4434929;32;20037;-69
2021/10/31 02:24:13;;;;;;;16.50;7.60;;;;;;;16.23;48.53;98792.06;4436302;32;20108;-69
2021/10/31 02:26:39;;;;;;;19.00;8.10;;;;;;;16.07;48.61;98798.59;4435831;32;20045;-69
2021/10/31 02:29:08;;;;;;;19.33;7.32;;;;;;;16.02;48.59;98787.28;4439938;32;20475;-69
2021/10/31 02:31:36;;;;;;;15.15;7.22;;;;;;;16.19;48.39;98773.78;4432732;32;20529;-69
2021/10/31 02:34:06;;;;;;;14.57;6.97;;;;;;;16.21;47.95;98768.38;4439740;32;20060;-69
2021/10/31 02:36:33;;;;;;;13.90;7.25;;;;;;;16.34;47.89;98774.22;4435183;32;20104;-69
2021/10/31 02:39:01;;;;;;;20.83;7.68;;;;;;;16.21;48.07;98759.84;4440494;32;20433;-69
2021/10/31 02:41:30;;;;;;;15.52;7.12;;;;;;;16.08;48.28;98751.94;4439993;32;20077;-69
2021/10/31 02:43:55;;;;;;;17.62;7.47;;;;;;;16.28;48.00;98748.72;4438157;32;20124;-69
2021/10/31 02:46:22;;;;;;;16.05;7.28;;;;;;;15.98;48.22;98732.91;4439374;32;20068;-69
2021/10/31 02:48:47;;;;;;;17.17;6.90;;;;;;;16.16;48.14;98738.72;4439609;32;20073;-69
2021/10/31 02:51:26;;;;;;;16.10;7.60;;;;;;;16.08;48.08;98737.75;4436751;32;20064;-69
2021/10/31 02:53:58;;;;;;;18.37;7.87;;;;;;;16.37;47.67;98733.44;4439905;32;21015;-69
2021/10/31 02:56:28;;;;;;;17.37;7.28;;;;;;;16.28;47.81;98745.88;4438065;32;20053;-69
2021/10/31 02:59:04;;;;;;;17.15;6.72;;;;;;;16.15;47.92;98745.69;4437130;32;20129;-69
2021/10/31 03:01:31;;;;;;;18.10;6.90;;;;;;;16.17;47.88;98737.41;4431216;32;20076;-69
2021/10/31 03:03:57;;;;;;;14.52;6.72;;;;;;;16.02;48.15;98724.88;4428507;32;20526;-69
2021/10/31 03:06:24;;;;;;;18.67;8.02;;;;;;;15.79;48.80;98716.47;4426599;32;20060;-69
2021/10/31 03:08:50;;;;;;;15.65;7.00;;;;;;;15.80;48.30;98715.19;4427276;32;20062;-69
2021/10/31 03:11:16;;;;;;;17.90;6.78;;;;;;;15.88;48.27;98706.91;4428090;32;20518;-69
2021/10/31 03:13:42;;;;;;;14.38;5.80;;;;;;;15.96;48.22;98705.81;4429128;32;20099;-69
2021/10/31 03:16:09;;;;;;;14.57;5.03;;;;;;;15.82;48.49;98703.31;4427320;32;20490;-69
2021/10/31 03:18:35;;;;;;;15.05;4.68;;;;;;;15.87;48.87;98705.37;4429092;32;20077;-69
2021/10/31 03:21:01;;;;;;;9.35;3.53;;;;;;;15.72;48.83;98700.03;4427957;32;20037;-69
2021/10/31 03:23:27;;;;;;;9.90;4.25;;;;;;;15.76;48.85;98694.06;4419094;32;20419;-69
2021/10/31 03:25:52;;;;;;;13.10;3.87;;;;;;;16.00;48.55;98680.00;4424190;32;20426;-69
2021/10/31 03:28:21;;;;;;;9.82;3.90;;;;;;;15.93;48.58;98677.75;4425747;32;20090;-69
2021/10/31 03:30:48;;;;;;;8.52;3.60;;;;;;;16.29;48.11;98676.44;4425502;32;20034;-69
2021/10/31 03:33:14;;;;;;;9.18;3.47;;;;;;;15.97;48.65;98661.19;4428863;32;20054;-69
2021/10/31 03:35:40;;;;;;;13.07;3.45;;;;;;;15.85;48.75;98663.34;4427804;32;20094;-69
2021/10/31 03:38:06;;;;;;;11.10;3.37;;;;;;;16.08;48.39;98658.31;4424534;32;20073;-69
2021/10/31 03:40:32;;;;;;;7.25;3.10;;;;;;;16.01;48.04;98652.44;4426656;32;20066;-69
2021/10/31 03:42:58;;;;;;;9.00;3.55;;;;;;;15.92;48.55;98651.44;4426289;32;20068;-69
2021/10/31 03:45:24;;;;;;;11.48;3.08;;;;;;;16.05;48.16;98639.50;4413531;32;20081;-69
2021/10/31 03:47:50;;;;;;;9.23;2.83;;;;;;;16.20;48.01;98619.28;4424425;32;20075;-69
2021/10/31 03:50:18;;;;;;;6.12;2.55;;;;;;;16.25;47.88;98619.22;4429271;32;20426;-69
2021/10/31 03:52:45;;;;;;;10.65;2.37;;;;;;;16.27;47.97;98615.84;4427854;32;20072;-69
2021/10/31 03:55:13;;;;;;;8.75;3.35;;;;;;;16.24;48.11;98608.38;4423919;32;20688;-69
2021/10/31 03:57:39;;;;;;;8.75;2.90;;;;;;;16.36;47.84;98602.09;4424166;32;21172;-69
2021/10/31 04:00:06;;;;;;;12.20;2.20;;;;;;;16.36;47.64;98595.66;4425541;32;20066;-69
2021/10/31 04:02:33;;;;;;;12.25;2.92;;;;;;;16.48;47.56;98591.44;4427635;32;20064;-69
2021/10/31 04:04:59;;;;;;;9.48;2.25;;;;;;;16.35;47.70;98582.78;4426683;32;20393;-69
2021/10/31 04:07:25;;;;;;;8.00;2.33;;;;;;;16.25;47.90;98590.84;4427971;32;20078;-69
2021/10/31 04:09:51;;;;;;;7.93;1.65;;;;;;;16.07;48.01;98588.66;4426229;32;20116;-69
2021/10/31 04:12:17;;;;;;;6.05;2.35;;;;;;;16.34;47.72;98589.72;4425391;32;20102;-69
2021/10/31 04:14:44;;;;;;;5.95;2.05;;;;;;;16.09;48.12;98580.41;4427131;32;20032;-69
2021/10/31 04:17:10;;;;;;;6.80;1.75;;;;;;;16.24;47.79;98566.59;4428323;32;20494;-69
2021/10/31 04:19:36;;;;;;;7.22;1.65;;;;;;;16.32;47.59;98564.72;4426801;32;20021;-69
2021/10/31 04:22:02;;;;;;;7.62;2.05;;;;;;;16.29;47.78;98568.59;4422160;32;20127;-69
2021/10/31 04:24:28;;;;;;;8.38;2.05;;;;;;;16.28;47.83;98564.22;4424802;32;20056;-69
2021/10/31 04:26:53;;;;;;;8.23;2.42;;;;;;;16.43;47.39;98558.16;4424415;32;20414;-69
2021/10/31 04:29:19;;;;;;;8.55;2.20;;;;;;;16.53;47.30;98548.00;4424939;32;20107;-69
2021/10/31 04:31:45;;;;;;;11.40;2.42;;;;;;;16.66;47.10;98542.47;4427183;32;20506;-69
2021/10/31 04:34:11;;;;;;;11.45;2.12;;;;;;;16.85;46.60;98537.59;4423868;32;20088;-69
2021/10/31 04:36:36;;;;;;;8.13;2.20;;;;;;;16.89;46.60;98521.81;4420905;32;20070;-69
2021/10/31 04:39:03;;;;;;;6.03;1.60;;;;;;;16.91;46.60;98524.84;4424511;32;20378;-69
2021/10/31 04:41:30;;;;;;;7.78;2.08;;;;;;;17.07;46.43;98520.28;4428137;32;20501;-69
2021/10/31 04:43:56;;;;;;;7.03;2.15;;;;;;;16.94;46.33;98508.84;4425339;32;20060;-69
2021/10/31 04:46:22;;;;;;;7.00;1.90;;;;;;;17.10;46.23;98502.16;4427256;32;20038;-69
2021/10/31 04:48:48;;;;;;;7.18;2.10;;;;;;;17.19;45.86;98481.88;4426728;32;20073;-69
2021/10/31 04:51:13;;;;;;;6.75;2.35;;;;;;;17.14;45.96;98479.88;4425935;32;20141;-69
2021/10/31 04:53:40;;;;;;;6.78;2.12;;;;;;;17.22;45.94;98478.75;4427151;32;20030;-69
2021/10/31 04:56:06;;;;;;;9.68;2.58;;;;;;;17.30;45.48;98467.50;4424930;32;20061;-69
2021/10/31 04:58:32;;;;;;;5.50;1.85;;;;;;;17.18;45.41;98472.59;4425911;32;20114;-69
2021/10/31 05:00:59;;;;;;;8.32;1.98;;;;;;;17.23;45.79;98462.44;4426116;32;20049;-69
2021/10/31 05:03:25;;;;;;;6.00;1.90;;;;;;;17.33;45.51;98453.00;4427356;32;20471;-69
2021/10/31 05:05:50;;;;;;;11.65;1.90;;;;;;;17.10;45.89;98454.63;4428662;32;20100;-69
2021/10/31 05:08:16;;;;;;;10.82;2.00;;;;;;;17.16;45.77;98440.34;4426019;32;20336;-69
2021/10/31 05:10:42;;;;;;;8.18;2.00;;;;;;;17.26;45.74;98430.09;4428827;32;20073;-69
2021/10/31 05:13:08;;;;;;;5.78;2.05;;;;;;;17.26;45.87;98430.87;4427417;32;20466;-69
2021/10/31 05:15:34;;;;;;;9.05;1.73;;;;;;;17.24;45.84;98424.97;4428302;32;20056;-69
2021/10/31 05:18:00;;;;;;;10.20;1.83;;;;;;;17.39;45.94;98427.31;4424439;32;20408;-69
2021/10/31 05:20:26;;;;;;;7.72;1.50;;;;;;;17.47;45.85;98406.28;4426629;32;20084;-69
2021/10/31 05:22:51;;;;;;;11.27;2.05;;;;;;;17.52;45.83;98408.25;4426463;32;20073;-69
2021/10/31 05:25:17;;;;;;;11.90;1.98;;;;;;;17.69;45.60;98405.12;4420049;32;20074;-69
2021/10/31 05:27:43;;;;;;;9.32;1.33;;;;;;;17.79;45.44;98392.03;4425599;32;20061;-69
2021/10/31 05:30:11;;;;;;;10.85;1.80;;;;;;;17.38;46.95;98383.91;4425203;32;20329;-69
2021/10/31 05:32:39;;;;;;;7.78;1.90;;;;;;;17.87;46.27;98395.78;4427156;32;20059;-69
2021/10/31 05:35:07;;;;;;;9.18;1.52;;;;;;;17.86;45.93;98385.72;4425758;32;21138;-69
2021/10/31 05:37:40;;;;;;;14.60;2.17;;;;;;;18.14;45.82;98365.25;4423837;32;20038;-69
2021/10/31 05:40:08;;;;;;;14.43;1.98;;;;;;;18.28;45.36;98370.41;4424762;32;20036;-69
2021/10/31 05:42:34;;;;;;;12.77;2.85;;;;;;;18.20;45.52;98375.22;4426835;32;20434;-70
2021/10/31 05:45:00;;;;;;;8.90;1.65;;;;;;;18.14;45.71;98365.25;4414414;32;20077;-69
2021/10/31 05:47:26;;;;;;;6.72;1.58;;;;;;;18.35;45.46;98338.41;4418092;32;20024;-69
2021/10/31 05:49:52;;;;;;;6.57;1.30;;;;;;;18.25;45.30;98337.31;4426932;32;20141;-69
2021/10/31 05:52:18;;;;;;;6.43;1.20;;;;;;;18.32;45.48;98335.91;4426576;32;20077;-69
2021/10/31 05:54:44;;;;;;;8.48;1.60;;;;;;;18.21;45.58;98319.03;4424031;32;20068;-69
2021/10/31 05:57:09;;;;;;;9.55;1.92;;;;;;;18.35;45.27;98314.88;4422818;32;20103;-69
2021/10/31 05:59:35;;;;;;;6.95;1.30;;;;;;;18.28;45.44;98304.91;4428563;32;20355;-69
2021/10/31 06:02:02;;;;;;;10.77;1.80;;;;;;;18.25;45.51;98297.47;4424800;32;20386;-69
2021/10/31 06:04:29;;;;;;;3.47;1.33;;;;;;;18.27;45.79;98283.47;4426717;32;20041;-69
2021/10/31 06:06:55;;;;;;;8.63;2.00;;;;;;;18.38;45.55;98271.84;4425687;32;20048;-69
2021/10/31 06:09:21;;;;;;;9.55;2.10;;;;;;;18.30;45.74;98273.06;4427324;32;20081;-69
2021/10/31 06:11:47;;;;;;;10.98;1.70;;;;;;;18.19;46.13;98261.91;4424875;32;20048;-69
2021/10/31 06:14:14;;;;;;;8.82;1.85;;;;;;;18.10;46.36;98248.87;4424889;32;20094;-69
2021/10/31 06:16:40;;;;;;;7.82;2.10;;;;;;;18.17;46.22;98236.06;4423763;32;20026;-69
2021/10/31 06:19:06;;;;;;;6.15;2.03;;;;;;;18.50;45.67;98224.72;4426988;32;20022;-69
2021/10/31 06:21:32;;;;;;;4.90;1.90;;;;;;;18.45;45.89;98210.63;4420589;32;20510;-70
2021/10/31 06:23:57;;;;;;;10.18;1.92;;;;;;;18.46;45.77;98209.28;4421906;32;20140;-70
2021/10/31 06:26:23;;;;;;;11.18;2.58;;;;;;;17.99;47.02;98200.00;4424590;32;20480;-68
2021/10/31 06:28:49;;;;;;;14.27;2.00;;;;;;;18.05;47.26;98192.09;4421195;32;20122;-67
2021/10/31 06:31:15;;;;;;;12.63;3.78;;;;;;;17.80;48.00;98180.97;4428236;32;21588;-68
2021/10/31 06:33:42;;;;;;;17.12;2.30;;;;;;;18.14;47.56;98186.72;4425594;32;20038;-68
2021/10/31 06:36:09;;;;;;;11.00;2.05;;;;;;;17.73;48.50;98178.03;4424867;32;20076;-68
2021/10/31 06:38:35;;;;;;;13.43;2.22;;;;;;;18.14;48.16;98172.50;4425237;32;20077;-68
2021/10/31 06:41:07;;;;;;;12.57;2.00;;;;;;;17.92;48.31;98167.31;4427668;32;20308;-67
2021/10/31 06:43:33;;;;;;;9.63;1.90;;;;;;;17.58;49.22;98164.37;4429411;32;20081;-68
2021/10/31 06:45:59;;;;;;;9.30;2.10;;;;;;;17.93;48.57;98157.44;4429256;32;20900;-68
2021/10/31 06:48:24;;;;;;;8.57;2.35;;;;;;;17.89;48.59;98148.47;4426031;32;20096;-68
2021/10/31 06:50:53;;;;;;;10.30;1.95;;;;;;;17.87;48.88;98153.94;4428566;32;20038;-68
2021/10/31 06:53:19;;;;;;;13.62;2.22;;;;;;;17.69;49.40;98132.88;4429682;32;20034;-68
2021/10/31 06:55:45;;;;;;;13.55;2.92;;;;;;;17.19;50.43;98123.81;4427669;32;20025;-68
2021/10/31 06:58:11;;;;;;;8.82;2.60;;;;;;;17.47;50.10;98121.97;4427223;32;20121;-67
2021/10/31 07:00:37;;;;;;;7.72;2.47;;;;;;;17.48;50.41;98106.44;4428755;32;20085;-67
2021/10/31 07:03:03;;;;;;;11.02;2.60;;;;;;;17.66;49.91;98105.53;4426699;32;20065;-67
2021/10/31 07:05:29;;;;;;;10.02;2.42;;;;;;;17.48;49.90;98089.38;4428265;32;20088;-67
2021/10/31 07:07:54;;;;;;;10.32;2.50;;;;;;;17.26;51.17;98086.97;4428816;32;20076;-67
2021/10/31 07:10:20;;;;;;;11.12;2.75;;;;;;;17.54;50.67;98090.03;4420358;32;20167;-67
2021/10/31 07:12:46;;;;;;;7.22;2.58;;;;;;;17.53;50.68;98077.12;4424994;32;20134;-67
2021/10/31 07:15:12;;;;;;;10.45;2.40;;;;;;;17.78;50.27;98074.75;4428222;32;20504;-67
2021/10/31 07:17:38;;;;;;;16.67;2.62;;;;;;;17.77;50.41;98065.44;4429088;32;20136;-67
2021/10/31 07:20:06;;;;;;;9.10;2.15;;;;;;;17.82;50.36;98058.09;4421662;32;20745;-68
2021/10/31 07:22:31;;;;;;;9.60;2.87;;;;;;;17.46;51.49;98060.72;4427532;32;20181;-67
2021/10/31 07:24:57;;;;;;;11.95;2.37;;;;;;;17.46;51.37;98060.72;4425001;32;20088;-67
2021/10/31 07:27:23;;;;;;;9.18;2.35;;;;;;;17.22;51.90;98055.28;4427117;32;20045;-67
2021/10/31 07:29:49;;;;;;;9.15;2.75;;;;;;;17.63;51.30;98037.59;4427837;32;20071;-67
2021/10/31 07:32:15;;;;;;;10.98;2.80;;;;;;;17.60;51.51;98036.63;4428104;32;20077;-67
2021/10/31 07:34:41;;;;;;;12.00;3.22;;;;;;;17.32;52.43;98036.47;4422838;32;20049;-67
2021/10/31 07:37:06;;;;;;;10.52;2.97;;;;;;;17.39;52.42;98024.41;4425218;32;20044;-67
2021/10/31 07:39:34;;;;;;;8.68;2.55;;;;;;;17.45;52.40;98007.25;4428031;32;20289;-68
2021/10/31 07:42:00;;;;;;;8.05;2.62;;;;;;;17.16;53.26;98005.56;4423671;32;20052;-68
2021/10/31 07:44:26;;;;;;;11.75;2.95;;;;;;;17.46;52.60;97988.91;4417555;32;20065;-68
2021/10/31 07:46:52;;;;;;;7.00;2.45;;;;;;;17.52;52.53;97978.91;4420427;32;20144;-68
2021/10/31 07:49:17;;;;;;;10.43;2.72;;;;;;;17.38;53.22;97973.81;4427165;32;20096;-68
2021/10/31 07:51:43;;;;;;;6.45;2.37;;;;;;;16.73;55.04;97965.41;4427586;32;20038;-68
2021/10/31 07:54:10;;;;;;;9.20;2.37;;;;;;;17.37;53.81;97963.75;4424982;32;20049;-68
2021/10/31 07:56:36;;;;;;;6.40;2.20;;;;;;;17.01;54.37;97951.37;4427227;32;20018;-68
2021/10/31 07:59:03;;;;;;;11.27;2.40;;;;;;;16.86;55.16;97942.66;4425771;32;20496;-67
2021/10/31 08:01:29;;;;;;;6.30;2.30;;;;;;;17.12;54.86;97931.25;4426042;32;20423;-66
2021/10/31 08:03:55;;;;;;;9.93;3.10;;;;;;;17.17;54.74;97925.44;4425385;32;20064;-66
2021/10/31 08:06:23;;;;;;;9.35;2.25;;;;;;;17.27;54.19;97915.13;4431049;32;20148;-66
2021/10/31 08:08:48;;;;;;;8.13;2.10;;;;;;;17.68;53.69;97895.28;4426356;32;20391;-67
2021/10/31 08:11:14;;;;;;;8.48;1.98;;;;;;;17.70;53.66;97889.03;4427170;32;20104;-67
2021/10/31 08:13:41;;;;;;;6.75;1.95;;;;;;;17.39;54.26;97873.00;4426620;32;20085;-68
2021/10/31 08:16:07;;;;;;;9.73;1.70;;;;;;;17.68;53.74;97861.16;4427246;32;20136;-68
2021/10/31 08:18:33;;;;;;;5.53;1.73;;;;;;;17.95;53.18;97841.09;4423174;32;20081;-68
2021/10/31 08:20:59;;;;;;;7.60;2.08;;;;;;;17.50;54.04;97830.88;4427450;32;20110;-68
2021/10/31 08:23:24;;;;;;;5.45;2.00;;;;;;;17.52;54.46;97831.06;4425006;32;20360;-68
2021/10/31 08:25:51;;;;;;;5.65;2.03;;;;;;;17.65;54.00;97810.34;4427687;32;20103;-68
2021/10/31 08:28:19;;;;;;;7.43;2.12;;;;;;;17.51;54.55;97815.34;4424716;32;20050;-66
2021/10/31 08:30:55;;;;;;;5.25;1.85;;;;;;;17.94;53.72;97796.88;4429406;32;20594;-67
2021/10/31 08:33:26;;;;;;;3.87;1.62;;;;;;;17.62;54.29;97788.69;4421868;32;20321;-68
2021/10/31 08:35:53;;;;;;;7.97;1.75;;;;;;;17.54;54.71;97785.78;4427193;32;20077;-68
2021/10/31 08:38:19;;;;;;;6.45;1.90;;;;;;;17.66;54.57;97775.66;4426060;32;20038;-67
2021/10/31 08:40:48;;;;;;;5.72;1.40;;;;;;;17.78;54.01;97756.97;4427558;32;20212;-67
2021/10/31 08:43:14;;;;;;;9.20;1.80;;;;;;;17.96;53.92;97762.94;4426380;32;20066;-67
2021/10/31 08:45:41;;;;;;;3.15;1.67;;;;;;;17.53;54.97;97740.88;4428678;32;20085;-68
2021/10/31 08:48:07;;;;;;;4.12;1.35;;;;;;;17.82;54.55;97737.44;4424723;32;20438;-68
2021/10/31 08:50:33;;;;;;;5.97;1.40;;;;;;;17.92;54.14;97718.53;4427736;32;20046;-68
2021/10/31 08:53:00;;;;;;;4.70;1.60;;;;;;;18.01;54.00;97730.72;4424180;32;20125;-68
2021/10/31 08:55:26;;;;;;;7.50;1.85;;;;;;;18.14;53.93;97730.59;4425385;32;20093;-67
2021/10/31 08:57:52;;;;;;;3.45;1.30;;;;;;;17.72;54.44;97710.84;4426377;32;20107;-68
2021/10/31 09:00:17;;;;;;;5.93;1.58;;;;;;;18.26;53.62;97711.88;4425472;32;20037;-68
2021/10/31 09:02:44;;;;;;;5.05;1.55;;;;;;;18.47;53.32;97709.69;4424807;32;20084;-68
2021/10/31 09:05:10;;;;;;;5.12;1.50;;;;;;;17.94;54.83;97688.78;4427069;32;20060;-67
2021/10/31 09:07:35;;;;;;;9.02;1.73;;;;;;;18.02;54.50;97689.56;4426972;32;20061;-67
2021/10/31 09:10:02;;;;;;;3.75;1.50;;;;;;;17.92;55.25;97680.03;4424716;32;20066;-67
2021/10/31 09:12:28;;;;;;;4.20;1.80;;;;;;;18.15;54.78;97673.12;4426480;32;20353;-68
2021/10/31 09:14:54;;;;;;;9.63;1.70;;;;;;;17.72;55.90;97653.97;4427740;32;20100;-67
2021/10/31 09:17:22;;;;;;;7.60;1.80;;;;;;;18.15;54.82;97652.44;4427515;32;20073;-68
2021/10/31 09:19:48;;;;;;;5.93;1.70;;;;;;;18.37;54.99;97641.13;4427918;32;20351;-68
2021/10/31 09:22:13;;;;;;;3.78;1.37;;;;;;;18.68;54.47;97637.00;4422963;32;20101;-67
2021/10/31 09:24:39;;;;;;;6.28;1.20;;;;;;;18.62;54.40;97644.97;4423941;32;20073;-67
2021/10/31 09:27:05;;;;;;;5.97;1.23;;;;;;;18.38;55.01;97651.19;4425997;32;20584;-68
2021/10/31 09:29:31;;;;;;;4.75;1.45;;;;;;;18.25;55.32;97645.63;4425872;32;20095;-68
2021/10/31 09:31:58;;;;;;;3.47;1.15;;;;;;;18.31;55.13;97629.13;4425629;32;20054;-67
2021/10/31 09:34:27;;;;;;;16.62;2.25;;;;;;;18.30;55.66;97641.88;4426380;32;20060;-68
2021/10/31 09:36:53;;;;;;;3.40;1.17;;;;;;;18.82;55.07;97626.97;4428518;32;20193;-68
2021/10/31 09:39:19;;;;;;;4.80;1.27;;;;;;;18.64;54.95;97633.00;4424140;32;20030;-68
2021/10/31 09:41:45;;;;;;;4.15;1.30;;;;;;;18.40;55.90;97617.22;4426767;32;20281;-67
2021/10/31 09:44:31;;;;;;;4.60;1.65;;;;;;;18.76;55.13;97617.09;4420144;32;20062;-68
2021/10/31 09:46:56;;;;;;;;;;;;;;;18.51;55.52;97604.72;4419031;32;20033;-68
2021/10/31 09:49:22;;;;;;;5.37;0.88;;;;;;;18.82;55.01;97597.72;4424741;32;20000;-67
2021/10/31 09:51:50;;;;;;;7.18;0.88;;;;;;;18.33;55.91;97588.72;4424984;32;20053;-68
2021/10/31 09:54:17;;;;;;;6.22;1.52;;;;;;;18.59;55.95;97579.88;4419505;32;20096;-68
2021/10/31 09:56:43;;;;;;;1.92;1.00;;;;;;;18.72;55.58;97576.81;4424930;32;20104;-68
2021/10/31 09:59:13;;;;;;;7.43;1.00;;;;;;;18.51;55.88;97557.09;4424487;32;20045;-67
2021/10/31 10:04:37;;;;;;;3.10;0.75;;;;;;;19.74;53.44;97547.16;3981478;32;15022157;-68
2021/10/31 10:07:07;;;;;;;2.28;0.85;;;;;;;19.74;53.44;97547.16;4441315;32;20438;-68
2021/10/31 10:09:34;;;;;;;5.43;0.93;;;;;;;19.21;54.29;97542.94;4441263;32;20076;-68
2021/10/31 10:12:12;;;;;;;2.70;1.10;;;;;;;19.09;54.54;97547.53;4438154;32;20469;-69
2021/10/31 10:14:38;;;;;;;8.13;1.33;;;;;;;19.42;53.69;97555.63;4439369;32;20071;-68
2021/10/31 10:17:09;;;;;;;7.95;1.15;;;;;;;19.45;54.17;97551.62;4437703;32;20023;-67
2021/10/31 10:19:44;;;;;;;2.70;1.17;;;;;;;19.77;53.86;97548.84;4437286;32;20466;-68
2021/10/31 10:22:14;;;;;;;6.85;1.33;;;;;;;19.39;53.70;97536.09;4437633;32;20114;-67
2021/10/31 10:24:57;;;;;;;10.82;1.50;;;;;;;19.56;53.63;97545.53;4434101;32;20067;-68
2021/10/31 10:27:27;;;;;;;5.85;1.08;;;;;;;19.59;53.03;97538.66;4429411;32;20144;-68
2021/10/31 10:29:54;;;;;;;2.67;1.02;;;;;;;19.32;54.39;97546.16;4437079;32;20569;-67
2021/10/31 10:32:23;;;;;;;2.22;0.80;;;;;;;19.24;55.04;97539.69;4440085;32;20018;-68
2021/10/31 10:42:41;;;;;;;3.37;0.77;;;;;;;19.78;53.57;97561.78;3983788;32;15022484;-67
2021/10/31 10:45:09;;;;;;;9.10;0.90;;;;;;;18.92;58.54;97544.50;4430694;32;20052;-68
2021/10/31 10:47:47;;;;;;;2.28;0.60;;;;;;;18.94;57.78;97519.06;4431484;32;20553;-69
2021/10/31 10:50:16;;;;;;;2.17;0.60;;;;;;;18.87;58.16;97500.66;4436227;32;20034;-68
2021/10/31 10:52:43;;;;;;;1.37;0.45;;;;;;;18.91;56.42;97491.72;4431965;32;20130;-68
2021/10/31 10:55:14;;;;;;;1.55;0.57;;;;;;;18.62;56.00;97490.44;4435601;32;20029;-69
2021/10/31 10:57:43;;;;;;;1.60;0.70;;;;;;;18.64;55.94;97507.72;4434596;32;20149;-68
2021/10/31 11:02:49;;;;;;;2.12;0.50;;;;;;;18.80;55.56;97498.56;3984489;32;15022011;-69
2021/10/31 11:05:16;;;;;;;3.05;0.70;;;;;;;18.80;55.56;97498.56;4440225;32;20021;-69
2021/10/31 11:07:47;;;;;;;1.42;0.45;;;;;;;18.29;57.62;97466.72;4438557;32;20029;-68
2021/10/31 11:12:52;;;;;;;1.48;0.50;;;;;;;19.60;58.55;97379.69;3956642;32;15734566;-68
2021/10/31 11:15:21;;;;;;;2.62;0.60;;;;;;;19.60;58.55;97379.69;4432371;32;20060;-66
2021/10/31 11:17:50;;;;;;;3.85;0.80;;;;;;;19.53;55.93;97340.56;4423262;32;20101;-67
2021/10/31 11:20:20;;;;;;;3.20;0.73;;;;;;;19.46;53.95;97419.13;4433773;32;20081;-67
2021/10/31 11:22:48;;;;;;;4.40;0.82;;;;;;;19.72;53.33;97421.44;4430407;32;20085;-67
2021/10/31 11:25:18;;;;;;;1.87;0.80;;;;;;;20.24;53.21;97438.75;4429811;32;20041;-67
2021/10/31 11:27:46;;;;;;;3.58;0.95;;;;;;;21.17;52.63;97431.72;4432152;32;20476;-67
2021/10/31 11:30:13;;;;;;;4.32;1.00;;;;;;;21.94;51.41;97430.16;4431574;32;20391;-67
2021/10/31 11:32:41;;;;;;;1.62;0.80;;;;;;;22.31;47.43;97428.78;4433933;32;20374;-67
2021/10/31 11:35:14;;;;;;;3.65;0.80;;;;;;;22.97;47.00;97436.00;4430620;32;20033;-67
2021/10/31 11:40:19;;;;;;;2.87;0.60;;;;;;;22.73;44.60;97437.06;3983210;32;15024824;-67
2021/10/31 11:42:48;;;;;;;2.97;1.00;;;;;;;22.85;45.44;97435.09;4435260;32;20395;-66
2021/10/31 11:45:18;;;;;;;2.53;0.50;;;;;;;23.31;44.37;97415.66;4432800;32;20141;-67
2021/10/31 11:47:47;;;;;;;2.12;0.65;;;;;;;23.98;43.26;97406.91;4433809;32;20065;-67
2021/10/31 11:50:20;;;;;;;2.03;0.50;;;;;;;23.71;41.21;97407.13;4432894;32;20085;-67
2021/10/31 11:52:51;;;;;;;1.95;0.52;;;;;;;23.48;41.32;97407.63;4434713;32;20056;-67
2021/10/31 11:55:34;;;;;;;3.60;0.50;;;;;;;23.29;41.29;97419.13;4433466;32;20069;-67
2021/10/31 12:00:58;;;;;;;1.83;0.20;;;;;;;24.62;39.30;97420.03;3964495;32;15648473;-68
2021/10/31 12:09:00;;;;;;;8.18;0.82;;;;;;;24.76;39.91;97418.91;3984583;32;15021506;-68
2021/10/31 12:14:08;;;;;;;3.40;0.60;;;;;;;25.44;37.09;97416.28;3986195;32;15022988;-67
2021/10/31 12:16:52;;;;;;;2.00;0.30;;;;;;;25.44;37.09;97416.28;4440561;32;20051;-68
2021/10/31 12:19:40;;;;;;;3.10;0.40;;;;;;;24.82;36.95;97415.72;4437078;32;20037;-68
2021/10/31 12:22:18;;;;;;;3.20;0.37;;;;;;;24.80;37.02;97416.34;4440681;32;20453;-68
2021/10/31 12:24:47;;;;;;;2.08;0.60;;;;;;;25.12;37.51;97406.22;4440429;32;20094;-69
2021/10/31 12:27:18;;;;;;;4.15;0.50;;;;;;;25.26;37.08;97413.69;4440588;32;20456;-68
2021/10/31 12:30:14;;;;;;;2.80;0.93;;;;;;;25.55;36.36;97406.94;4442530;32;20099;-68
2021/10/31 12:32:42;;;;;;;5.87;0.50;;;;;;;25.73;35.67;97414.63;4441062;32;20390;-68